Time;durP1;ratioP1;P1;durP2;ratioP2;P2;SDS_P1;SDS_P2;PMS_P1;PMS_P2;Temp;Humidity;BMP_temperature;BMP_pressure;BME280_temperature;BME280_humidity;BME280_pressure;Samples;Min_cycle;Max_cycle;Signal;HPM_P1;HPM_P2
2022/06/07 00:00:55;;;;;;;11.28;8.45;;;;;;;16.66;76.23;98508.02;1765203;80;25384;-56
2022/06/07 00:03:21;;;;;;;11.75;8.00;;;;;;;16.64;76.08;98512.53;1765492;80;28193;-56
2022/06/07 00:05:48;;;;;;;9.35;7.58;;;;;;;16.64;76.07;98507.59;1765224;80;25640;-57
2022/06/07 00:08:16;;;;;;;11.57;7.87;;;;;;;16.65;76.08;98504.47;1765546;81;25519;-56
2022/06/07 00:10:47;;;;;;;13.15;8.60;;;;;;;16.74;76.09;98503.47;1765333;81;25734;-57
2022/06/07 00:13:13;;;;;;;;;;;;;;;16.85;75.88;98506.48;1768327;81;25443;-56
2022/06/07 00:15:41;;;;;;;9.43;7.55;;;;;;;16.91;75.83;98508.63;1765566;79;28320;-56
2022/06/07 00:18:08;;;;;;;12.33;7.95;;;;;;;16.89;75.70;98505.98;1765345;80;25653;-57
2022/06/07 00:20:36;;;;;;;11.25;8.18;;;;;;;16.84;75.83;98511.81;1765404;80;25743;-57
2022/06/07 00:23:07;;;;;;;9.23;7.55;;;;;;;16.71;76.01;98507.77;1765072;80;25859;-56
2022/06/07 00:25:34;;;;;;;13.43;8.45;;;;;;;16.58;76.35;98508.43;1765352;80;25471;-57
2022/06/07 00:28:00;;;;;;;11.20;8.28;;;;;;;16.45;76.48;98513.84;1765405;80;27431;-56
2022/06/07 00:30:28;;;;;;;11.48;8.43;;;;;;;16.37;77.00;98512.85;1765357;79;25961;-57
2022/06/07 00:32:54;;;;;;;9.83;8.40;;;;;;;16.36;76.82;98505.16;1765439;80;25459;-56
2022/06/07 00:35:21;;;;;;;10.05;7.72;;;;;;;16.38;76.78;98508.95;1765625;80;25687;-56
2022/06/07 00:37:48;;;;;;;10.48;7.28;;;;;;;16.40;76.84;98508.81;1765504;80;25458;-57
2022/06/07 00:40:16;;;;;;;11.08;7.20;;;;;;;16.48;76.69;98503.45;1765469;80;28274;-56
2022/06/07 00:42:42;;;;;;;10.98;7.70;;;;;;;16.52;76.83;98505.73;1765503;80;25676;-56
2022/06/07 00:45:16;;;;;;;10.63;7.20;;;;;;;16.58;76.67;98500.13;1765184;80;25392;-56
2022/06/07 00:47:43;;;;;;;9.70;6.92;;;;;;;16.63;76.64;98498.48;1765431;80;25832;-56
2022/06/07 00:50:20;;;;;;;10.00;6.78;;;;;;;16.70;76.82;98500.63;1765479;79;25578;-57
2022/06/07 00:52:47;;;;;;;9.53;6.87;;;;;;;16.71;77.16;98496.70;1765470;80;27440;-61
2022/06/07 00:55:14;;;;;;;8.03;6.42;;;;;;;16.74;76.88;98501.52;1765253;81;25454;-60
2022/06/07 00:57:41;;;;;;;11.78;6.62;;;;;;;16.69;76.83;98497.63;1765363;81;25568;-57
2022/06/07 01:00:12;;;;;;;9.55;6.80;;;;;;;16.64;76.95;98496.53;1765581;80;25769;-56
2022/06/07 01:02:39;;;;;;;9.48;7.08;;;;;;;16.66;77.16;98498.34;1765649;80;25427;-56
2022/06/07 01:05:06;;;;;;;8.78;7.00;;;;;;;16.73;77.31;98490.23;1765218;80;29575;-56
2022/06/07 01:13:01;;;;;;;7.53;5.78;;;;;;;16.92;77.70;98473.43;1765089;81;25376;-58
2022/06/07 01:15:28;;;;;;;8.18;6.00;;;;;;;17.01;77.46;98477.41;1765318;80;25404;-57
2022/06/07 01:17:54;;;;;;;9.25;6.65;;;;;;;17.09;77.13;98476.41;1765440;80;27546;-57
2022/06/07 01:20:20;;;;;;;9.25;6.85;;;;;;;17.11;76.98;98469.94;1765040;80;25650;-57
2022/06/07 01:22:46;;;;;;;7.55;6.67;;;;;;;17.10;76.85;98472.47;1765086;80;25673;-57
2022/06/07 01:25:12;;;;;;;8.40;6.90;;;;;;;17.04;76.99;98469.77;1765512;80;26485;-56
2022/06/07 01:27:38;;;;;;;9.13;7.65;;;;;;;17.00;77.06;98464.70;1765783;80;25732;-57
2022/06/07 01:30:07;;;;;;;7.62;6.40;;;;;;;16.93;77.09;98459.84;1765240;80;27551;-57
2022/06/07 01:32:34;;;;;;;7.10;5.90;;;;;;;16.96;77.04;98449.42;1765432;80;25580;-56
2022/06/07 01:34:59;;;;;;;7.78;5.95;;;;;;;17.00;76.91;98460.55;1765236;80;25836;-57
2022/06/07 01:37:25;;;;;;;6.50;5.25;;;;;;;16.99;76.64;98447.89;1765593;81;25774;-57
2022/06/07 01:42:36;;;;;;;6.67;5.40;;;;;;;17.00;76.70;98453.64;1765279;81;25615;-56
2022/06/07 01:45:05;;;;;;;8.48;5.00;;;;;;;17.02;76.69;98452.70;1765637;80;25790;-56
2022/06/07 01:47:33;;;;;;;7.90;5.33;;;;;;;17.04;76.61;98443.47;1765702;80;25376;-56
2022/06/07 01:50:02;;;;;;;7.83;6.08;;;;;;;17.06;76.52;98445.27;1765471;80;26720;-56
2022/06/07 01:52:32;;;;;;;7.92;5.92;;;;;;;17.04;76.57;98442.86;1765299;80;25567;-56
2022/06/07 01:54:58;;;;;;;8.75;6.40;;;;;;;17.01;76.49;98434.50;1765702;80;27418;-56
2022/06/07 01:57:25;;;;;;;8.93;6.08;;;;;;;16.99;76.80;98435.44;1765554;81;25735;-56
2022/06/07 01:59:52;;;;;;;10.93;6.67;;;;;;;16.94;76.79;98433.75;1765889;80;25494;-56
2022/06/07 02:02:19;;;;;;;10.88;6.60;;;;;;;16.91;76.82;98431.13;1765191;80;25700;-56
2022/06/07 02:04:46;;;;;;;12.30;7.25;;;;;;;16.87;76.73;98425.30;1765277;81;25633;-56
2022/06/07 02:07:14;;;;;;;12.53;7.78;;;;;;;16.80;76.90;98430.90;1765415;80;27402;-56
2022/06/07 02:09:40;;;;;;;16.65;9.88;;;;;;;16.81;76.97;98427.53;1765543;80;25632;-56
2022/06/07 02:12:07;;;;;;;7.83;5.50;;;;;;;16.78;77.15;98429.06;1765694;79;25582;-56
2022/06/07 02:14:34;;;;;;;9.83;6.40;;;;;;;16.78;76.85;98423.53;1765329;81;25870;-56
2022/06/07 02:16:59;;;;;;;7.00;5.92;;;;;;;16.79;76.74;98426.53;1765752;80;25633;-56
2022/06/07 02:19:26;;;;;;;8.35;5.53;;;;;;;16.83;76.62;98427.98;1765605;81;27388;-56
2022/06/07 02:21:52;;;;;;;8.45;6.62;;;;;;;16.84;76.65;98428.79;1768572;80;26251;-58
2022/06/07 02:24:19;;;;;;;6.53;5.53;;;;;;;16.84;76.60;98425.42;1775784;80;25458;-56
2022/06/07 02:26:52;;;;;;;7.35;5.80;;;;;;;16.84;76.57;98424.04;1775413;80;26695;-56
2022/06/07 02:29:29;;;;;;;7.08;5.55;;;;;;;16.82;76.57;98425.00;1775768;80;25672;-59
2022/06/07 02:32:04;;;;;;;9.55;6.42;;;;;;;16.84;76.59;98417.72;1775307;79;27434;-57
2022/06/07 02:34:30;;;;;;;7.85;6.45;;;;;;;16.78;76.58;98420.76;1775335;79;25707;-58
2022/06/07 02:37:01;;;;;;;7.65;6.00;;;;;;;16.74;76.58;98421.84;1775875;80;25458;-60
2022/06/07 02:39:30;;;;;;;9.10;6.65;;;;;;;16.67;76.95;98430.20;1775917;80;25768;-57
2022/06/07 02:41:58;;;;;;;8.30;6.17;;;;;;;16.57;76.77;98425.23;1775743;80;25660;-61
2022/06/07 02:44:25;;;;;;;11.85;7.95;;;;;;;16.45;76.83;98423.38;1775622;80;28181;-57
2022/06/07 02:46:51;;;;;;;9.38;7.25;;;;;;;16.45;77.33;98418.42;1775541;80;25422;-57
2022/06/07 02:49:17;;;;;;;10.13;6.87;;;;;;;16.46;77.23;98411.75;1775721;80;25592;-57
2022/06/07 02:51:43;;;;;;;8.83;6.58;;;;;;;16.48;77.24;98421.28;1775400;80;26153;-57
2022/06/07 02:54:10;;;;;;;8.85;6.78;;;;;;;16.47;77.31;98422.45;1776055;79;25608;-57
2022/06/07 02:56:36;;;;;;;12.75;7.33;;;;;;;16.52;77.23;98422.77;1775310;80;27345;-58
2022/06/07 02:59:02;;;;;;;10.63;6.90;;;;;;;16.53;77.23;98416.84;1775644;80;25376;-58
2022/06/07 03:01:29;;;;;;;9.60;6.87;;;;;;;16.56;77.43;98416.13;1775644;79;25647;-57
2022/06/07 03:03:58;;;;;;;9.08;6.50;;;;;;;16.59;77.21;98413.81;1775605;80;25888;-59
2022/06/07 03:06:23;;;;;;;9.08;6.00;;;;;;;16.62;77.17;98418.05;1775243;79;25478;-57
2022/06/07 03:08:49;;;;;;;8.20;6.20;;;;;;;16.68;76.98;98422.71;1775792;80;27342;-57
2022/06/07 03:11:15;;;;;;;9.05;6.85;;;;;;;16.72;76.84;98418.66;1775911;80;25402;-57
2022/06/07 03:13:41;;;;;;;10.03;6.47;;;;;;;16.70;76.84;98418.20;1775710;80;25556;-57
2022/06/07 03:16:07;;;;;;;10.23;6.90;;;;;;;16.65;76.94;98416.52;1775372;80;25655;-57
2022/06/07 03:18:33;;;;;;;10.88;7.20;;;;;;;16.63;77.09;98409.96;1776038;80;25885;-57
2022/06/07 03:20:59;;;;;;;13.88;7.62;;;;;;;16.67;77.23;98416.37;1775586;79;28198;-57
2022/06/07 03:23:26;;;;;;;11.93;7.40;;;;;;;16.75;77.11;98419.31;1769035;79;27100;-58
2022/06/07 03:26:03;;;;;;;9.95;7.17;;;;;;;16.80;76.87;98422.59;1768506;79;25455;-57
2022/06/07 03:28:29;;;;;;;12.23;6.72;;;;;;;16.86;76.85;98421.72;1768349;81;25829;-57
2022/06/07 03:31:06;;;;;;;10.82;7.30;;;;;;;16.92;76.57;98418.08;1768309;81;25395;-57
2022/06/07 03:33:33;;;;;;;11.90;7.10;;;;;;;16.94;76.40;98419.91;1768181;80;27413;-57
2022/06/07 03:36:11;;;;;;;12.33;7.83;;;;;;;17.03;76.34;98419.12;1768412;80;25573;-57
2022/06/07 03:38:38;;;;;;;23.77;12.88;;;;;;;17.08;76.16;98415.87;1768707;80;25458;-57
2022/06/07 03:41:05;;;;;;;11.80;7.85;;;;;;;17.07;76.18;98420.59;1768665;79;25741;-57
2022/06/07 03:43:33;;;;;;;16.65;8.60;;;;;;;17.04;76.42;98422.70;1768150;80;25645;-57
2022/06/07 03:46:13;;;;;;;13.98;8.08;;;;;;;17.03;76.36;98412.77;1768496;79;26857;-58
2022/06/07 03:48:41;;;;;;;18.27;9.15;;;;;;;17.09;76.42;98418.84;1768469;81;26041;-57
2022/06/07 03:51:09;;;;;;;12.85;7.90;;;;;;;17.08;76.27;98419.45;1768566;81;25415;-57
2022/06/07 03:53:36;;;;;;;13.38;8.18;;;;;;;17.15;76.26;98416.01;1768471;81;25727;-58
2022/06/07 03:56:03;;;;;;;12.78;8.05;;;;;;;17.19;76.16;98412.75;1768551;79;26257;-58
2022/06/07 03:58:30;;;;;;;13.08;7.67;;;;;;;17.35;76.36;98408.50;1768237;80;27491;-57
2022/06/07 04:00:59;;;;;;;14.60;8.68;;;;;;;17.51;75.91;98421.47;1768282;80;25419;-58
2022/06/07 04:03:26;;;;;;;13.18;7.58;;;;;;;17.64;75.71;98411.00;1768415;81;25589;-58
2022/06/07 04:05:53;;;;;;;13.20;7.53;;;;;;;17.82;75.42;98416.89;1768542;80;25681;-59
2022/06/07 04:08:20;;;;;;;12.47;7.58;;;;;;;17.91;74.58;98407.72;1768227;81;25653;-58
2022/06/07 04:11:00;;;;;;;11.25;7.58;;;;;;;18.06;74.93;98403.82;1768440;80;27677;-58
2022/06/07 04:13:30;;;;;;;10.85;6.90;;;;;;;18.20;74.23;98393.58;1768022;80;25412;-57
2022/06/07 04:15:56;;;;;;;14.68;8.38;;;;;;;18.38;73.97;98398.59;1768606;79;25636;-57
2022/06/07 04:18:23;;;;;;;11.30;8.28;;;;;;;18.53;73.71;98399.02;1768421;79;25667;-59
2022/06/07 04:20:49;;;;;;;9.45;6.30;;;;;;;18.76;74.25;98404.28;1768453;81;25455;-61
2022/06/07 04:23:21;;;;;;;11.83;7.35;;;;;;;18.93;73.82;98400.95;1772587;79;28222;-60
2022/06/07 04:25:48;;;;;;;10.15;6.80;;;;;;;19.12;73.18;98403.41;1775690;79;25700;-61
2022/06/07 04:28:15;;;;;;;10.18;7.15;;;;;;;19.37;72.56;98406.27;1775564;80;25605;-60
2022/06/07 04:30:49;;;;;;;11.12;7.33;;;;;;;19.51;71.31;98402.25;1775144;80;25706;-65
2022/06/07 04:33:17;;;;;;;16.17;8.10;;;;;;;19.60;71.29;98399.16;1775549;80;25758;-57
2022/06/07 04:35:45;;;;;;;12.85;7.50;;;;;;;19.79;71.25;98395.97;1775462;80;27396;-57
2022/06/07 04:38:13;;;;;;;12.55;7.42;;;;;;;19.90;70.67;98394.09;1775494;79;25507;-57
2022/06/07 04:40:44;;;;;;;16.95;8.28;;;;;;;20.08;69.84;98396.83;1775536;80;25710;-58
2022/06/07 04:43:11;;;;;;;13.25;7.45;;;;;;;20.15;69.89;98398.30;1775603;79;25760;-57
2022/06/07 04:45:40;;;;;;;10.15;6.80;;;;;;;20.28;69.74;98388.45;1775666;80;25676;-57
2022/06/07 04:48:10;;;;;;;9.35;5.87;;;;;;;20.41;69.02;98389.54;1775240;80;27352;-57
2022/06/07 04:50:36;;;;;;;10.60;7.07;;;;;;;20.55;69.00;98394.38;1775914;80;25746;-61
2022/06/07 04:53:02;;;;;;;8.08;6.30;;;;;;;20.65;68.29;98390.08;1775511;79;25744;-57
2022/06/07 04:55:29;;;;;;;13.70;7.05;;;;;;;20.67;67.28;98388.49;1775195;80;25759;-57
2022/06/07 04:57:55;;;;;;;8.20;6.60;;;;;;;20.64;67.29;98396.84;1775677;80;25434;-57
2022/06/07 05:00:21;;;;;;;13.50;7.50;;;;;;;20.65;66.89;98399.23;1775617;80;27458;-58
2022/06/07 05:02:48;;;;;;;8.18;6.00;;;;;;;20.62;66.87;98398.63;1775137;80;25550;-58
2022/06/07 05:05:16;;;;;;;8.73;5.78;;;;;;;20.76;67.19;98406.84;1775239;80;25514;-57
2022/06/07 05:07:43;;;;;;;9.05;5.58;;;;;;;20.94;67.20;98398.61;1775411;80;26201;-57
2022/06/07 05:10:13;;;;;;;7.92;5.28;;;;;;;21.11;65.67;98403.26;1775522;80;25466;-58
2022/06/07 05:12:40;;;;;;;8.93;5.80;;;;;;;21.12;66.13;98404.26;1775779;80;27459;-59
2022/06/07 05:15:08;;;;;;;8.43;5.50;;;;;;;21.17;65.55;98404.48;1775272;80;25747;-57
2022/06/07 05:17:39;;;;;;;9.95;6.10;;;;;;;21.15;65.78;98404.87;1775516;80;25486;-57
2022/06/07 05:20:15;;;;;;;10.98;6.05;;;;;;;21.30;65.16;98409.89;1775587;80;25744;-58
2022/06/07 05:22:40;;;;;;;9.63;6.42;;;;;;;21.25;65.01;98404.72;1772073;79;25673;-59
2022/06/07 05:25:08;;;;;;;8.28;5.53;;;;;;;21.34;65.56;98401.55;1765490;81;27441;-59
2022/06/07 05:27:45;;;;;;;6.60;5.30;;;;;;;21.42;65.06;98403.77;1765089;80;25578;-60
2022/06/07 05:30:15;;;;;;;9.40;5.55;;;;;;;21.41;65.37;98394.60;1765100;81;25391;-61
2022/06/07 05:32:42;;;;;;;6.37;4.85;;;;;;;21.52;64.71;98391.03;1765499;81;25687;-60
2022/06/07 05:35:09;;;;;;;10.00;5.40;;;;;;;21.56;63.75;98394.66;1765085;81;25444;-63
2022/06/07 05:37:36;;;;;;;7.65;4.83;;;;;;;21.52;64.26;98403.58;1765155;80;27492;-64
2022/06/07 05:40:04;;;;;;;7.08;5.10;;;;;;;21.63;63.91;98401.63;1765024;80;25633;-63
2022/06/07 05:42:31;;;;;;;8.90;5.60;;;;;;;21.69;63.45;98400.05;1765491;80;25563;-58
2022/06/07 05:44:57;;;;;;;6.72;5.10;;;;;;;21.79;63.33;98404.67;1765475;81;25824;-59
2022/06/07 05:47:23;;;;;;;6.90;5.50;;;;;;;21.86;62.86;98396.90;1765154;81;25656;-58
2022/06/07 05:49:50;;;;;;;7.97;5.40;;;;;;;21.89;63.03;98399.70;1765427;80;27372;-64
2022/06/07 05:52:16;;;;;;;7.90;6.03;;;;;;;22.10;63.16;98406.47;1765118;80;25638;-62
2022/06/07 05:54:49;;;;;;;7.17;5.33;;;;;;;22.34;63.00;98404.68;1765644;80;25654;-61
2022/06/07 05:57:16;;;;;;;7.67;5.10;;;;;;;22.50;62.45;98408.44;1765221;80;25732;-61
2022/06/07 05:59:43;;;;;;;7.00;4.85;;;;;;;22.59;61.63;98404.66;1765218;81;25661;-58
2022/06/07 06:02:11;;;;;;;6.92;5.30;;;;;;;22.71;60.60;98413.20;1765269;80;27495;-57
2022/06/07 06:04:37;;;;;;;7.25;4.65;;;;;;;22.87;61.21;98407.20;1765155;80;25594;-58
2022/06/07 06:07:04;;;;;;;8.15;4.55;;;;;;;23.06;61.13;98402.34;1765515;80;25686;-58
2022/06/07 06:12:15;;;;;;;4.78;4.10;;;;;;;23.39;60.61;98414.20;1765152;81;25552;-61
2022/06/07 06:14:42;;;;;;;4.72;4.22;;;;;;;23.47;60.46;98405.77;1765096;81;29517;-57
2022/06/07 06:17:08;;;;;;;6.33;4.90;;;;;;;23.55;59.89;98411.52;1765372;80;25699;-57
2022/06/07 06:19:34;;;;;;;9.95;5.50;;;;;;;23.46;58.65;98410.58;1765804;81;25454;-58
2022/06/07 06:22:00;;;;;;;8.63;5.35;;;;;;;23.47;60.05;98409.37;1765110;81;25718;-58
2022/06/07 06:24:26;;;;;;;5.30;4.80;;;;;;;23.60;59.74;98406.88;1765288;80;25550;-58
2022/06/07 06:26:54;;;;;;;5.28;4.33;;;;;;;23.60;58.67;98396.31;1765233;81;27411;-58
2022/06/07 06:29:23;;;;;;;11.40;6.42;;;;;;;23.55;58.96;98401.73;1765165;80;25764;-57
2022/06/07 06:31:51;;;;;;;7.35;4.92;;;;;;;23.59;59.08;98400.30;1765617;80;25670;-57
2022/06/07 06:34:19;;;;;;;6.83;4.33;;;;;;;23.73;58.57;98399.41;1765356;80;25732;-57
2022/06/07 06:36:47;;;;;;;6.97;4.33;;;;;;;23.81;58.69;98400.34;1765414;80;25609;-58
2022/06/07 06:39:15;;;;;;;9.08;5.62;;;;;;;23.91;58.28;98405.69;1765356;80;26894;-58
2022/06/07 06:41:43;;;;;;;7.47;5.40;;;;;;;23.98;58.23;98410.45;1765497;81;25634;-57
2022/06/07 06:44:11;;;;;;;6.62;5.08;;;;;;;23.92;57.68;98410.06;1765248;80;25574;-58
2022/06/07 06:46:41;;;;;;;7.55;5.08;;;;;;;23.91;58.27;98407.09;1765434;81;25812;-57
2022/06/07 06:49:10;;;;;;;6.87;4.67;;;;;;;23.96;58.23;98407.25;1765994;80;25561;-58
2022/06/07 06:51:38;;;;;;;7.65;4.30;;;;;;;23.97;57.32;98414.44;1765468;80;27497;-61
2022/06/07 06:54:06;;;;;;;8.70;5.10;;;;;;;23.95;58.05;98412.67;1765408;80;25447;-61
2022/06/07 06:56:33;;;;;;;7.83;4.85;;;;;;;24.00;58.45;98406.61;1765321;81;25581;-60
2022/06/07 06:58:59;;;;;;;9.00;4.62;;;;;;;24.09;57.27;98398.37;1765432;81;25873;-60
2022/06/07 07:01:33;;;;;;;7.37;5.10;;;;;;;24.04;57.99;98398.20;1765202;80;25717;-59
2022/06/07 07:04:03;;;;;;;8.20;5.10;;;;;;;24.08;58.03;98401.76;1765670;80;27987;-60
2022/06/07 07:06:29;;;;;;;;;;;;;;;24.10;57.36;98399.36;1768095;80;25959;-61
2022/06/07 07:08:57;;;;;;;9.50;5.15;;;;;;;24.03;58.43;98400.20;1765593;79;25476;-58
2022/06/07 07:11:38;;;;;;;8.23;4.85;;;;;;;23.99;57.80;98408.42;1765443;80;25693;-59
2022/06/07 07:14:06;;;;;;;9.68;5.87;;;;;;;23.91;57.86;98401.49;1765251;81;25455;-62
2022/06/07 07:16:39;;;;;;;10.93;6.17;;;;;;;23.91;57.80;98397.89;1765588;80;28168;-61
2022/06/07 07:19:06;;;;;;;9.95;5.50;;;;;;;23.99;57.74;98397.23;1765629;81;25562;-58
2022/06/07 07:21:38;;;;;;;10.90;6.00;;;;;;;24.03;57.52;98390.99;1765358;80;25561;-58
2022/06/07 07:24:09;;;;;;;8.40;5.42;;;;;;;24.00;58.06;98396.05;1767054;81;25682;-59
2022/06/07 07:26:37;;;;;;;9.80;5.55;;;;;;;24.01;58.90;98394.83;1752955;81;25702;-58
2022/06/07 07:29:05;;;;;;;8.68;5.25;;;;;;;24.14;57.73;98397.94;1768168;81;27451;-57
2022/06/07 07:31:36;;;;;;;8.53;5.12;;;;;;;24.21;57.37;98405.48;1768550;81;25578;-57
2022/06/07 07:34:07;;;;;;;13.70;9.58;;;;;;;24.37;57.05;98397.93;1768397;80;25629;-57
2022/06/07 07:36:35;;;;;;;11.45;5.83;;;;;;;24.61;57.61;98395.31;1768549;80;25758;-57
2022/06/07 07:39:03;;;;;;;11.40;5.55;;;;;;;24.76;56.45;98398.16;1768455;81;25621;-58
2022/06/07 07:41:33;;;;;;;9.08;5.92;;;;;;;25.02;56.78;98397.29;1768337;81;27394;-57
2022/06/07 07:44:01;;;;;;;;;;;;;;;25.46;56.59;98397.31;1771053;81;25809;-59
2022/06/07 07:46:32;;;;;;;11.12;6.67;;;;;;;25.81;55.26;98393.83;1768509;81;25389;-59
2022/06/07 07:48:59;;;;;;;5.85;4.40;;;;;;;26.05;53.97;98390.44;1768470;80;25729;-58
2022/06/07 07:51:29;;;;;;;6.70;4.40;;;;;;;26.40;54.01;98394.48;1768368;81;25388;-57
2022/06/07 07:53:59;;;;;;;6.22;4.05;;;;;;;26.74;51.61;98385.63;1768559;80;27324;-57
2022/06/07 07:56:27;;;;;;;7.83;3.92;;;;;;;26.92;51.75;98385.31;1768424;80;25637;-57
2022/06/07 07:58:55;;;;;;;5.37;4.00;;;;;;;27.13;51.53;98379.08;1768421;80;25422;-61
2022/06/07 08:01:26;;;;;;;6.37;3.85;;;;;;;27.34;49.99;98377.65;1753123;81;25788;-63
2022/06/07 08:03:57;;;;;;;3.42;3.12;;;;;;;27.46;49.36;98384.61;1768505;79;25648;-59
2022/06/07 08:06:25;;;;;;;5.30;3.60;;;;;;;27.64;48.56;98389.23;1768585;81;28007;-65
2022/06/07 08:08:54;;;;;;;4.95;3.33;;;;;;;27.82;48.91;98382.40;1768265;81;25438;-57
2022/06/07 08:11:28;;;;;;;5.90;3.30;;;;;;;28.11;48.00;98380.28;1768769;80;25782;-57
2022/06/07 08:13:55;;;;;;;5.22;3.33;;;;;;;28.32;48.35;98378.16;1768569;81;25776;-58
2022/06/07 08:16:22;;;;;;;5.37;3.77;;;;;;;28.64;47.64;98379.33;1768583;81;25475;-57
2022/06/07 08:18:49;;;;;;;3.77;2.90;;;;;;;28.81;47.66;98378.66;1768247;80;27479;-58
2022/06/07 08:21:24;;;;;;;3.47;2.50;;;;;;;28.85;45.80;98377.16;1768168;81;25407;-64
2022/06/07 08:23:52;;;;;;;4.00;2.20;;;;;;;28.93;46.88;98372.88;1770594;80;25405;-60
2022/06/07 08:26:20;;;;;;;6.42;2.90;;;;;;;29.21;44.93;98378.16;1775700;80;25732;-58
2022/06/07 08:28:47;;;;;;;3.15;2.35;;;;;;;29.45;46.30;98377.06;1775291;80;25671;-58
2022/06/07 08:31:17;;;;;;;3.58;2.58;;;;;;;29.64;44.38;98378.09;1775589;80;27311;-60
2022/06/07 08:39:15;;;;;;;4.05;2.60;;;;;;;30.25;42.12;98378.16;1775229;80;26004;-60
2022/06/07 08:41:59;;;;;;;2.85;2.55;;;;;;;30.41;42.95;98370.16;1775654;80;25404;-59
2022/06/07 08:44:39;;;;;;;3.67;2.87;;;;;;;30.25;41.74;98372.51;1775278;80;28292;-63
2022/06/07 08:47:11;;;;;;;2.90;2.60;;;;;;;30.40;42.19;98368.55;1775655;80;25655;-59
2022/06/07 08:49:38;;;;;;;3.08;2.20;;;;;;;30.67;42.42;98365.80;1774563;79;25708;-61
2022/06/07 08:52:22;;;;;;;5.78;2.40;;;;;;;30.92;39.60;98369.79;1775280;79;25796;-58
2022/06/07 08:54:50;;;;;;;2.72;2.52;;;;;;;30.86;40.74;98363.14;1775609;80;25629;-58
2022/06/07 08:57:24;;;;;;;3.47;2.90;;;;;;;31.16;39.94;98360.00;1775432;80;27594;-58
2022/06/07 08:59:55;;;;;;;2.87;2.10;;;;;;;31.37;38.99;98361.23;1775377;80;25552;-58
2022/06/07 09:02:46;;;;;;;2.62;2.42;;;;;;;31.35;38.40;98362.94;1775570;80;25712;-58
2022/06/07 09:05:16;;;;;;;2.87;2.27;;;;;;;31.55;39.34;98358.34;1775584;79;25716;-58
2022/06/07 09:07:44;;;;;;;5.70;2.12;;;;;;;31.72;37.60;98363.13;1775582;80;25709;-58
2022/06/07 09:13:06;;;;;;;2.58;2.05;;;;;;;32.25;38.30;98350.03;1775363;80;25425;-58
2022/06/07 09:15:36;;;;;;;2.30;2.10;;;;;;;32.74;36.75;98349.56;1775288;79;25488;-58
2022/06/07 09:18:06;;;;;;;2.42;2.22;;;;;;;32.94;35.19;98344.80;1775560;80;25866;-58
2022/06/07 09:20:46;;;;;;;2.65;2.00;;;;;;;33.06;35.87;98345.14;1775909;80;25610;-58
2022/06/07 09:23:30;;;;;;;2.95;1.82;;;;;;;33.45;34.54;98338.83;1775280;80;28333;-59
2022/06/07 09:26:14;;;;;;;3.83;2.08;;;;;;;33.23;33.55;98340.66;1778149;80;26364;-58
2022/06/07 09:28:41;;;;;;;4.28;1.80;;;;;;;33.02;33.47;98338.97;1776752;80;25715;-60
2022/06/07 09:31:12;;;;;;;3.10;2.00;;;;;;;32.21;33.96;98333.81;1778223;80;26114;-58
2022/06/07 09:33:56;;;;;;;2.80;2.25;;;;;;;32.50;34.56;98331.79;1778567;80;25658;-56
2022/06/07 09:36:33;;;;;;;1.60;1.50;;;;;;;33.04;35.11;98328.55;1770421;80;28128;-56
2022/06/07 09:39:20;;;;;;;2.40;1.90;;;;;;;33.33;33.03;98318.70;1778460;80;25825;-55
2022/06/07 09:42:14;;;;;;;2.15;1.85;;;;;;;33.59;33.96;98318.27;1778150;80;25660;-55
2022/06/07 09:45:02;;;;;;;2.20;1.80;;;;;;;33.79;33.58;98316.27;1778359;80;26429;-55
2022/06/07 09:47:31;;;;;;;2.08;1.90;;;;;;;33.44;32.17;98303.95;1778685;80;25610;-64
2022/06/07 09:50:22;;;;;;;2.22;2.08;;;;;;;32.56;34.31;98308.63;1778639;80;27407;-55
2022/06/07 09:52:58;;;;;;;2.12;1.77;;;;;;;32.47;34.61;98305.14;1778294;80;25632;-56
2022/06/07 09:55:58;;;;;;;1.90;1.80;;;;;;;32.72;33.17;98298.20;1778548;80;25432;-57
2022/06/07 09:58:41;;;;;;;1.82;1.50;;;;;;;32.61;32.35;98292.38;1778325;80;25723;-57
2022/06/07 10:01:27;;;;;;;4.55;2.47;;;;;;;32.79;32.79;98280.22;1777561;80;25643;-59
2022/06/07 10:04:34;;;;;;;1.45;1.35;;;;;;;33.25;32.92;98279.14;1775855;80;27380;-58
2022/06/07 10:07:06;;;;;;;2.00;1.55;;;;;;;33.69;30.45;98276.41;1778289;80;25580;-62
2022/06/07 10:10:08;;;;;;;1.37;1.27;;;;;;;33.45;30.34;98267.22;1778159;80;25628;-57
2022/06/07 10:12:59;;;;;;;2.47;1.80;;;;;;;33.40;30.46;98265.02;1707413;83;25955;-60
2022/06/07 10:16:20;;;;;;;1.77;1.67;;;;;;;32.93;29.92;98262.37;1707549;84;25512;-61
2022/06/07 10:19:04;;;;;;;1.70;1.60;;;;;;;32.18;31.27;98272.40;1707477;84;27412;-57
2022/06/07 10:21:50;;;;;;;1.60;1.50;;;;;;;32.70;31.61;98266.68;1707226;84;25976;-57
2022/06/07 10:24:42;;;;;;;2.15;1.52;;;;;;;32.82;30.98;98259.23;1658006;84;25979;-56
2022/06/07 10:27:17;;;;;;;2.50;1.70;;;;;;;33.07;30.80;98262.32;1707639;84;25844;-57
2022/06/07 10:30:27;;;;;;;2.47;1.90;;;;;;;32.81;31.00;98261.28;1707688;84;25456;-60
2022/06/07 10:33:23;;;;;;;2.22;1.60;;;;;;;32.45;33.09;98262.28;1707420;84;27512;-57
2022/06/07 10:36:01;;;;;;;1.80;1.70;;;;;;;32.26;32.57;98261.53;1707267;84;25785;-57
2022/06/07 10:38:39;;;;;;;5.05;3.00;;;;;;;33.03;32.02;98256.02;1698862;84;25694;-57
2022/06/07 10:41:29;;;;;;;2.67;1.80;;;;;;;33.51;31.60;98256.77;1707273;84;25905;-57
2022/06/07 10:44:33;;;;;;;1.65;1.30;;;;;;;33.92;30.03;98256.36;1707620;84;25489;-56
2022/06/07 10:47:13;;;;;;;1.87;1.70;;;;;;;34.27;28.85;98252.14;1707481;84;27602;-57
2022/06/07 10:49:54;;;;;;;2.08;1.87;;;;;;;34.29;29.31;98241.08;1739399;80;25679;-57
2022/06/07 10:52:34;;;;;;;1.87;1.60;;;;;;;34.34;30.17;98238.81;1778698;80;25688;-57
2022/06/07 10:55:30;;;;;;;1.65;1.55;;;;;;;34.91;30.49;98234.13;1778470;80;25749;-58
2022/06/07 10:58:08;;;;;;;1.80;1.50;;;;;;;35.30;28.94;98237.45;1772831;80;25569;-62
2022/06/07 11:00:52;;;;;;;2.52;1.47;;;;;;;35.59;29.25;98230.70;1777081;80;27847;-60
2022/06/07 11:03:57;;;;;;;2.30;1.60;;;;;;;35.47;27.54;98224.87;1778513;80;25613;-55
2022/06/07 11:09:48;;;;;;;1.55;1.40;;;;;;;34.25;29.20;98222.64;1778474;80;25640;-56
2022/06/07 11:12:25;;;;;;;2.10;1.90;;;;;;;34.66;29.02;98215.77;1778391;80;25436;-56
2022/06/07 11:15:12;;;;;;;2.60;1.65;;;;;;;35.12;29.12;98213.62;1777923;80;28150;-57
2022/06/07 11:17:50;;;;;;;2.08;1.37;;;;;;;35.51;27.72;98214.66;1778259;80;25576;-56
2022/06/07 11:20:27;;;;;;;1.52;1.40;;;;;;;35.87;27.12;98220.33;1778755;80;25585;-56
2022/06/07 11:23:06;;;;;;;1.75;1.37;;;;;;;35.99;26.18;98214.90;1778718;80;25687;-56
2022/06/07 11:25:43;;;;;;;2.95;1.82;;;;;;;36.04;26.27;98208.46;1769109;80;25425;-57
2022/06/07 11:28:17;;;;;;;1.50;1.40;;;;;;;36.06;26.75;98206.53;1766558;80;27483;-57
2022/06/07 11:30:48;;;;;;;1.70;1.60;;;;;;;36.38;26.24;98199.49;1768406;80;26531;-59
2022/06/07 11:33:42;;;;;;;3.45;1.70;;;;;;;36.47;26.71;98199.19;1768616;80;25622;-57
2022/06/07 11:36:27;;;;;;;2.90;1.50;;;;;;;36.82;25.53;98207.41;1765783;81;25598;-60
2022/06/07 11:39:20;;;;;;;2.05;1.30;;;;;;;36.97;25.54;98195.83;1768183;80;25372;-59
2022/06/07 11:41:52;;;;;;;2.72;1.62;;;;;;;37.23;25.95;98190.06;1768109;80;27422;-58
2022/06/07 11:44:36;;;;;;;1.37;1.27;;;;;;;37.05;25.04;98191.22;1768680;81;25672;-60
2022/06/07 11:47:14;;;;;;;2.67;2.45;;;;;;;37.12;24.27;98188.52;1768269;80;25617;-55
2022/06/07 11:49:55;;;;;;;3.50;1.65;;;;;;;37.18;24.51;98181.44;1768492;80;26545;-57
2022/06/07 11:52:26;;;;;;;3.22;1.50;;;;;;;36.95;25.03;98177.02;1768683;80;25447;-56
2022/06/07 11:54:58;;;;;;;6.85;1.98;;;;;;;36.48;24.40;98174.44;1768543;81;28197;-56
2022/06/07 11:57:41;;;;;;;1.47;1.37;;;;;;;36.08;24.33;98183.22;1767131;80;25997;-56
2022/06/07 12:00:23;;;;;;;1.42;1.32;;;;;;;36.04;24.97;98179.19;1768318;81;25447;-56
2022/06/07 12:03:09;;;;;;;3.72;2.45;;;;;;;35.76;24.74;98161.12;1768482;81;25789;-56
2022/06/07 12:05:46;;;;;;;2.50;1.55;;;;;;;35.91;24.92;98158.97;1768325;80;25418;-58
2022/06/07 12:08:45;;;;;;;1.85;1.20;;;;;;;35.97;24.92;98161.11;1768603;81;28174;-57
2022/06/07 12:11:23;;;;;;;3.17;1.22;;;;;;;36.53;23.81;98156.56;1762289;80;25832;-56
2022/06/07 12:14:07;;;;;;;1.45;1.22;;;;;;;36.60;23.83;98153.11;1762639;81;25644;-57
2022/06/07 12:16:43;;;;;;;4.08;1.90;;;;;;;35.91;23.88;98142.50;1762036;81;26781;-59